Time;durP1;ratioP1;P1;durP2;ratioP2;P2;SDS_P1;SDS_P2;PMS_P1;PMS_P2;Temp;Humidity;BMP_temperature;BMP_pressure;BME280_temperature;BME280_humidity;BME280_pressure;Samples;Min_cycle;Max_cycle;Signal;HPM_P1;HPM_P2
2022/09/05 00:00:10;;;;;;;4.60;2.20;;;;;;;17.95;100.00;100387.91;5053248;28;20037;-65
2022/09/05 00:03:15;;;;;;;4.82;2.58;;;;;;;17.93;100.00;100380.84;5053607;28;20056;-65
2022/09/05 00:05:40;;;;;;;4.50;2.83;;;;;;;17.93;100.00;100381.75;5049657;28;20068;-65
2022/09/05 00:08:36;;;;;;;4.60;2.60;;;;;;;17.89;100.00;100382.84;5053555;28;20484;-64
2022/09/05 00:11:18;;;;;;;4.47;2.38;;;;;;;17.90;100.00;100372.97;5053126;28;20494;-64
2022/09/05 00:13:51;;;;;;;6.75;2.45;;;;;;;17.91;100.00;100375.56;5052575;28;20082;-65
2022/09/05 00:16:34;;;;;;;4.63;2.55;;;;;;;17.90;100.00;100367.59;5052667;28;20029;-64
2022/09/05 00:19:09;;;;;;;4.28;2.53;;;;;;;17.88;100.00;100373.06;5052543;28;20037;-64
2022/09/05 00:21:56;;;;;;;5.25;2.60;;;;;;;17.82;100.00;100376.09;5052551;28;20166;-64
2022/09/05 00:24:40;;;;;;;5.78;2.80;;;;;;;17.83;100.00;100369.75;5052520;28;20025;-64
2022/09/05 00:27:26;;;;;;;7.35;3.15;;;;;;;17.77;100.00;100372.81;5047872;28;20358;-65
2022/09/05 00:30:14;;;;;;;4.78;2.45;;;;;;;17.78;100.00;100379.91;5041379;28;20503;-64
2022/09/05 00:33:10;;;;;;;4.95;2.65;;;;;;;17.74;100.00;100374.78;5053063;28;20025;-65
2022/09/05 00:35:59;;;;;;;5.72;2.65;;;;;;;17.71;100.00;100367.75;5052902;28;20048;-64
2022/09/05 00:38:27;;;;;;;5.45;2.40;;;;;;;17.68;100.00;100367.03;5053024;28;20068;-65
2022/09/05 00:41:01;;;;;;;3.85;2.50;;;;;;;17.64;100.00;100365.50;5053021;28;20119;-64
2022/09/05 00:43:35;;;;;;;4.72;2.45;;;;;;;17.66;100.00;100369.81;5052784;28;20044;-64
2022/09/05 00:46:09;;;;;;;3.92;2.33;;;;;;;17.62;100.00;100372.78;5051920;28;20033;-64
2022/09/05 00:48:56;;;;;;;5.45;2.72;;;;;;;17.58;100.00;100366.69;5052794;28;20120;-64
2022/09/05 00:51:53;;;;;;;6.25;2.65;;;;;;;17.57;100.00;100359.59;5052810;28;20063;-65
2022/09/05 00:54:22;;;;;;;3.15;2.05;;;;;;;17.54;100.00;100372.34;5018886;28;20110;-65
2022/09/05 00:57:09;;;;;;;4.80;2.05;;;;;;;17.50;100.00;100376.13;5052716;28;20526;-65
2022/09/05 00:59:41;;;;;;;4.47;2.38;;;;;;;17.48;100.00;100381.59;5052622;28;20045;-65
2022/09/05 01:02:30;;;;;;;5.60;2.25;;;;;;;17.46;100.00;100380.81;5049066;28;20380;-65
2022/09/05 01:05:05;;;;;;;5.00;3.00;;;;;;;17.42;100.00;100376.53;5050073;28;20033;-65
2022/09/05 01:08:08;;;;;;;5.47;2.50;;;;;;;17.44;100.00;100380.00;5052677;28;20053;-65
2022/09/05 01:10:48;;;;;;;4.53;2.50;;;;;;;17.41;100.00;100379.31;5046804;28;20033;-65
2022/09/05 01:13:14;;;;;;;5.65;2.17;;;;;;;17.40;100.00;100374.88;5050311;28;20029;-64
2022/09/05 01:15:55;;;;;;;3.88;2.22;;;;;;;17.38;100.00;100374.94;5052387;28;20436;-65
2022/09/05 01:18:41;;;;;;;4.10;2.13;;;;;;;17.41;100.00;100376.63;5052192;28;20112;-65
2022/09/05 01:21:31;;;;;;;4.15;2.40;;;;;;;17.39;100.00;100376.72;5052266;28;20035;-66
2022/09/05 01:24:21;;;;;;;4.80;2.35;;;;;;;17.37;100.00;100375.91;5051871;28;20025;-65
2022/09/05 01:26:58;;;;;;;3.90;2.38;;;;;;;17.40;100.00;100377.56;5052300;28;20366;-65
2022/09/05 01:29:39;;;;;;;4.18;2.40;;;;;;;17.40;100.00;100378.44;5052011;28;20028;-64
2022/09/05 01:32:32;;;;;;;4.28;2.20;;;;;;;17.38;100.00;100374.09;5051054;28;20044;-65
2022/09/05 01:35:29;;;;;;;4.80;2.90;;;;;;;17.37;100.00;100378.59;5051094;28;20104;-65
2022/09/05 01:38:27;;;;;;;4.45;2.28;;;;;;;17.37;100.00;100373.22;5050076;28;20750;-65
2022/09/05 01:41:29;;;;;;;4.68;2.60;;;;;;;17.38;100.00;100374.94;5051582;28;20037;-64
2022/09/05 01:44:11;;;;;;;4.35;2.33;;;;;;;17.40;100.00;100375.75;5051428;28;20064;-64
2022/09/05 01:46:59;;;;;;;4.85;2.83;;;;;;;17.42;100.00;100381.03;5051762;28;20031;-65
2022/09/05 01:49:49;;;;;;;5.07;2.67;;;;;;;17.39;100.00;100382.09;5048897;28;20027;-64
2022/09/05 01:52:52;;;;;;;7.00;3.03;;;;;;;17.42;100.00;100381.91;5047450;28;20083;-64
2022/09/05 01:55:31;;;;;;;5.30;2.30;;;;;;;17.46;100.00;100383.50;5030567;28;20053;-64
2022/09/05 01:58:33;;;;;;;6.10;2.63;;;;;;;17.46;100.00;100385.34;5030213;28;20052;-64
2022/09/05 02:01:06;;;;;;;5.40;2.63;;;;;;;17.44;100.00;100382.72;5047569;28;20048;-65
2022/09/05 02:03:55;;;;;;;4.30;2.60;;;;;;;17.46;100.00;100382.66;5050580;28;20666;-65
2022/09/05 02:06:27;;;;;;;4.55;2.38;;;;;;;17.45;100.00;100379.09;5050797;28;20032;-65
2022/09/05 02:09:39;;;;;;;4.25;2.70;;;;;;;17.45;100.00;100387.16;5051211;28;20051;-65
2022/09/05 02:12:14;;;;;;;4.82;2.45;;;;;;;17.45;100.00;100379.09;4989632;28;20034;-64
2022/09/05 02:14:51;;;;;;;4.15;2.50;;;;;;;17.44;100.00;100384.50;5026885;28;20102;-65
2022/09/05 02:17:29;;;;;;;4.20;2.30;;;;;;;17.37;100.00;100383.97;5031338;28;20025;-65
2022/09/05 02:20:11;;;;;;;6.18;2.50;;;;;;;17.33;100.00;100381.56;5031368;28;20033;-65
2022/09/05 02:22:47;;;;;;;3.95;2.47;;;;;;;17.33;100.00;100390.47;5031169;28;20033;-65
2022/09/05 02:25:19;;;;;;;4.75;2.38;;;;;;;17.35;100.00;100383.19;5031393;28;20487;-65
2022/09/05 02:28:03;;;;;;;4.30;2.03;;;;;;;17.31;100.00;100383.44;5030926;28;20056;-65
2022/09/05 02:30:34;;;;;;;4.82;2.50;;;;;;;17.32;100.00;100391.44;5044098;28;20337;-65
2022/09/05 02:33:20;;;;;;;3.97;2.30;;;;;;;17.30;100.00;100379.88;5050812;28;20032;-64
2022/09/05 02:36:04;;;;;;;4.32;2.42;;;;;;;17.32;100.00;100377.09;5051117;28;20108;-65
2022/09/05 02:38:45;;;;;;;4.00;2.03;;;;;;;17.30;100.00;100382.56;5050651;28;20033;-65
2022/09/05 02:41:34;;;;;;;5.38;2.58;;;;;;;17.31;100.00;100378.06;5033031;28;20063;-65
2022/09/05 02:44:10;;;;;;;6.07;2.50;;;;;;;17.23;100.00;100383.88;5050792;28;20036;-65
2022/09/05 02:46:47;;;;;;;5.38;2.40;;;;;;;17.23;100.00;100383.88;5050734;28;20103;-65
2022/09/05 02:49:46;;;;;;;4.93;2.28;;;;;;;17.17;100.00;100384.19;5050819;28;20036;-65
2022/09/05 02:52:14;;;;;;;5.43;2.33;;;;;;;17.12;100.00;100378.19;5050901;28;20025;-65
2022/09/05 02:54:46;;;;;;;3.88;2.30;;;;;;;17.10;100.00;100380.97;5050736;28;20104;-64
2022/09/05 02:57:35;;;;;;;3.78;2.60;;;;;;;17.10;100.00;100382.75;5050500;28;20032;-65
2022/09/05 03:00:17;;;;;;;4.70;2.50;;;;;;;17.09;100.00;100386.41;5049387;28;20032;-64
2022/09/05 03:03:10;;;;;;;3.20;2.05;;;;;;;17.10;100.00;100382.75;5050581;28;20078;-64
2022/09/05 03:05:59;;;;;;;5.53;2.42;;;;;;;17.06;100.00;100381.22;5049487;28;20036;-65
2022/09/05 03:08:39;;;;;;;3.92;2.35;;;;;;;17.00;100.00;100378.84;5050009;28;20891;-64
2022/09/05 03:11:42;;;;;;;4.25;2.30;;;;;;;16.98;100.00;100380.75;5052699;28;20139;-65
2022/09/05 03:14:35;;;;;;;4.00;2.30;;;;;;;16.96;100.00;100385.34;5053972;28;20129;-65
2022/09/05 03:17:14;;;;;;;4.53;2.35;;;;;;;16.92;100.00;100381.06;5053867;28;20384;-64
2022/09/05 03:19:58;;;;;;;3.50;2.15;;;;;;;16.92;100.00;100387.31;5054329;28;20025;-65
2022/09/05 03:22:41;;;;;;;3.97;2.38;;;;;;;16.91;100.00;100385.59;5054514;28;20102;-65
2022/09/05 03:25:22;;;;;;;5.57;2.80;;;;;;;16.84;100.00;100385.97;5054258;28;20202;-65
2022/09/05 03:28:09;;;;;;;7.03;2.50;;;;;;;16.81;100.00;100383.44;5054265;28;20480;-65
2022/09/05 03:30:34;;;;;;;4.82;2.72;;;;;;;16.83;100.00;100385.13;5053086;28;20389;-64
2022/09/05 03:33:49;;;;;;;5.43;2.17;;;;;;;16.84;100.00;100385.97;5054406;28;20051;-65
2022/09/05 03:36:40;;;;;;;4.53;2.42;;;;;;;16.81;100.00;100370.88;5040286;28;20045;-64
2022/09/05 03:39:27;;;;;;;4.05;2.47;;;;;;;16.75;100.00;100368.50;5054105;28;20052;-65
2022/09/05 03:42:09;;;;;;;4.05;2.40;;;;;;;16.84;100.00;100369.84;5054217;28;20104;-64
2022/09/05 03:44:56;;;;;;;4.85;2.83;;;;;;;16.89;100.00;100378.53;5036170;28;20028;-64
2022/09/05 03:48:02;;;;;;;10.43;2.97;;;;;;;16.85;100.00;100385.03;5054072;28;20078;-65
2022/09/05 03:50:34;;;;;;;4.28;2.45;;;;;;;16.84;100.00;100377.91;4992044;28;20053;-65
2022/09/05 03:53:08;;;;;;;4.57;2.65;;;;;;;16.81;100.00;100384.31;5045805;28;20057;-65
2022/09/05 03:55:52;;;;;;;4.38;2.80;;;;;;;16.80;100.00;100381.72;5053469;28;20033;-65
2022/09/05 03:58:36;;;;;;;4.15;2.22;;;;;;;16.73;100.00;100375.78;5050675;28;20468;-65
2022/09/05 04:01:08;;;;;;;5.07;2.70;;;;;;;16.70;100.00;100378.66;5051979;28;20032;-65
2022/09/05 04:03:49;;;;;;;4.55;2.70;;;;;;;16.69;100.00;100387.63;5053695;28;20123;-65
2022/09/05 04:06:29;;;;;;;5.32;2.40;;;;;;;16.67;100.00;100386.00;5053617;28;20071;-65
2022/09/05 04:09:16;;;;;;;6.03;2.72;;;;;;;16.66;100.00;100390.47;5053662;28;20120;-65
2022/09/05 04:11:59;;;;;;;4.43;2.70;;;;;;;16.63;100.00;100396.03;5053509;28;20027;-65
2022/09/05 04:14:42;;;;;;;6.40;3.00;;;;;;;16.63;100.00;100392.44;5053154;28;20368;-65
2022/09/05 04:17:30;;;;;;;4.95;3.05;;;;;;;16.63;100.00;100387.09;5053227;28;20056;-65
2022/09/05 04:20:06;;;;;;;4.90;2.88;;;;;;;16.68;100.00;100393.09;5053510;28;20103;-65
2022/09/05 04:22:40;;;;;;;5.20;2.42;;;;;;;16.64;100.00;100381.63;5053030;28;20448;-64
2022/09/05 04:25:20;;;;;;;4.60;2.65;;;;;;;16.62;100.00;100399.63;5053334;28;20057;-64
2022/09/05 04:28:30;;;;;;;4.55;2.90;;;;;;;16.61;100.00;100384.47;5053323;28;20040;-65
2022/09/05 04:31:24;;;;;;;5.88;2.92;;;;;;;16.60;100.00;100401.56;5048407;28;20049;-65
2022/09/05 04:33:56;;;;;;;13.70;3.15;;;;;;;16.59;100.00;100398.94;5051980;28;20108;-65
2022/09/05 04:36:37;;;;;;;4.82;3.13;;;;;;;16.47;100.00;100378.06;5052012;28;20444;-65
2022/09/05 04:39:08;;;;;;;7.85;3.20;;;;;;;16.55;100.00;100406.28;5034465;28;20025;-64
2022/09/05 04:41:39;;;;;;;4.53;2.88;;;;;;;16.54;100.00;100401.00;5052219;28;20488;-64
2022/09/05 04:44:25;;;;;;;9.48;4.10;;;;;;;16.52;100.00;100402.88;5052253;28;20033;-64
2022/09/05 04:46:55;;;;;;;4.57;2.50;;;;;;;16.54;100.00;100409.06;5051497;28;20025;-64
2022/09/05 04:49:32;;;;;;;8.48;3.05;;;;;;;16.58;100.00;100408.81;5051329;28;20095;-64
2022/09/05 04:52:10;;;;;;;3.95;2.38;;;;;;;16.61;100.00;100414.03;5051274;28;20108;-64
2022/09/05 04:54:43;;;;;;;4.03;2.38;;;;;;;16.61;100.00;100414.03;5051148;28;20040;-64
2022/09/05 04:57:33;;;;;;;6.95;2.80;;;;;;;16.62;100.00;100428.34;5051415;28;20120;-64
2022/09/05 05:00:15;;;;;;;4.75;2.63;;;;;;;16.65;100.00;100430.84;5051066;28;20029;-64
2022/09/05 05:02:40;;;;;;;10.30;3.30;;;;;;;16.69;100.00;100427.06;5052695;28;20035;-64
2022/09/05 05:05:24;;;;;;;4.85;2.53;;;;;;;16.76;100.00;100439.22;5052336;28;20108;-64
2022/09/05 05:07:57;;;;;;;6.13;3.00;;;;;;;16.73;100.00;100439.38;5052521;28;20032;-64
2022/09/05 05:10:23;;;;;;;;;;;;;;;16.70;100.00;100439.56;5052505;28;20025;-64
2022/09/05 05:13:29;;;;;;;7.03;3.05;;;;;;;16.73;100.00;100455.50;5052427;28;20019;-64
2022/09/05 05:16:11;;;;;;;10.63;3.72;;;;;;;16.83;100.00;100457.66;5034900;28;20541;-64
2022/09/05 05:18:45;;;;;;;10.05;3.17;;;;;;;16.92;100.00;100457.19;5052303;28;20049;-64
2022/09/05 05:21:24;;;;;;;6.00;3.45;;;;;;;16.93;100.00;100458.91;5052418;28;20534;-64
2022/09/05 05:23:54;;;;;;;5.03;3.13;;;;;;;16.98;100.00;100464.91;5052213;28;20458;-64
2022/09/05 05:26:31;;;;;;;9.32;3.45;;;;;;;17.03;100.00;100457.47;5051403;28;20051;-64
2022/09/05 05:29:09;;;;;;;7.25;3.25;;;;;;;17.10;100.00;100455.34;5052202;28;20481;-64
2022/09/05 05:31:45;;;;;;;8.32;4.22;;;;;;;17.15;100.00;100455.97;5051686;28;20057;-64
2022/09/05 05:34:33;;;;;;;6.95;3.15;;;;;;;17.23;100.00;100467.22;5050018;28;20056;-65
2022/09/05 05:37:36;;;;;;;5.68;3.25;;;;;;;17.27;100.00;100470.59;5050886;28;20034;-64
2022/09/05 05:40:07;;;;;;;4.20;2.80;;;;;;;17.40;100.00;100467.19;5051566;28;20088;-64
2022/09/05 05:42:34;;;;;;;4.50;2.63;;;;;;;17.43;100.00;100475.09;5051298;28;20108;-64
2022/09/05 05:45:00;;;;;;;5.03;2.40;;;;;;;17.46;100.00;100469.56;5051322;28;20036;-64
2022/09/05 05:47:34;;;;;;;5.40;3.30;;;;;;;17.54;100.00;100477.25;5051545;28;20033;-65
2022/09/05 05:50:35;;;;;;;5.75;3.47;;;;;;;17.67;100.00;100479.19;5050783;28;20092;-64
2022/09/05 05:53:22;;;;;;;6.25;3.50;;;;;;;17.78;100.00;100481.28;5051751;28;20067;-64
2022/09/05 05:56:07;;;;;;;5.55;3.53;;;;;;;17.79;100.00;100489.28;5048370;28;20040;-64
2022/09/05 05:59:07;;;;;;;8.13;2.97;;;;;;;17.93;100.00;100481.31;5051209;28;20037;-64
2022/09/05 06:01:35;;;;;;;7.35;2.95;;;;;;;18.04;100.00;100481.59;5031423;28;20025;-64
2022/09/05 06:04:35;;;;;;;5.30;3.15;;;;;;;18.16;100.00;100480.91;5031561;28;20413;-64
2022/09/05 06:07:31;;;;;;;4.80;3.20;;;;;;;18.24;100.00;100480.47;5031648;28;20370;-64
2022/09/05 06:10:19;;;;;;;5.95;3.50;;;;;;;18.37;100.00;100482.38;5031971;28;20048;-65
2022/09/05 06:13:10;;;;;;;8.43;3.22;;;;;;;18.67;100.00;100487.00;5039366;28;20028;-64
2022/09/05 06:16:03;;;;;;;5.18;2.97;;;;;;;18.96;100.00;100486.19;5048842;28;20489;-65
2022/09/05 06:19:04;;;;;;;5.20;3.08;;;;;;;19.57;100.00;100478.84;5040216;28;20037;-65
2022/09/05 06:21:50;;;;;;;5.43;3.45;;;;;;;21.62;100.00;100486.72;5049384;28;20044;-65
2022/09/05 06:24:34;;;;;;;7.28;3.40;;;;;;;24.16;83.04;100477.19;5048962;28;20039;-63
2022/09/05 06:27:24;;;;;;;4.57;3.13;;;;;;;26.12;67.95;100485.69;5049069;28;20477;-65
2022/09/05 06:30:08;;;;;;;5.72;3.30;;;;;;;27.63;58.62;100486.06;5048384;28;20110;-65
2022/09/05 06:32:46;;;;;;;6.85;3.35;;;;;;;28.97;53.10;100491.00;5029481;28;20459;-65
2022/09/05 06:35:34;;;;;;;5.18;2.72;;;;;;;29.44;49.42;100489.78;5032429;28;20703;-65
2022/09/05 06:38:25;;;;;;;8.05;3.13;;;;;;;27.68;53.89;100491.97;5049408;28;20032;-64
2022/09/05 06:41:12;;;;;;;8.55;3.10;;;;;;;25.82;59.84;100494.69;5048639;28;20461;-64
2022/09/05 06:44:05;;;;;;;4.75;2.90;;;;;;;24.55;66.89;100488.41;5049335;28;20046;-64
2022/09/05 06:46:35;;;;;;;6.53;3.40;;;;;;;24.61;67.29;100495.19;5048616;28;20525;-64
2022/09/05 06:49:19;;;;;;;8.48;3.90;;;;;;;25.48;65.66;100498.63;5031674;28;20525;-64
2022/09/05 06:52:15;;;;;;;6.40;3.55;;;;;;;25.21;63.76;100509.13;5047644;28;20028;-64
2022/09/05 06:54:43;;;;;;;5.93;3.15;;;;;;;24.20;66.26;100511.31;5049830;28;20029;-64
2022/09/05 06:57:26;;;;;;;8.10;3.55;;;;;;;23.93;69.57;100505.34;5048604;28;20028;-64
2022/09/05 07:00:11;;;;;;;6.75;3.38;;;;;;;24.60;68.33;100515.22;5036657;28;20028;-64
2022/09/05 07:02:40;;;;;;;8.02;4.35;;;;;;;24.97;66.74;100516.66;5048863;28;20071;-64
2022/09/05 07:05:32;;;;;;;11.50;5.68;;;;;;;24.72;67.79;100506.09;5048519;28;20025;-64
2022/09/05 07:08:28;;;;;;;5.10;3.10;;;;;;;24.82;67.85;100500.72;5047244;28;20040;-64
2022/09/05 07:11:05;;;;;;;7.45;3.80;;;;;;;25.25;66.17;100507.00;5049733;28;20037;-64
2022/09/05 07:13:38;;;;;;;5.47;3.22;;;;;;;26.04;63.97;100509.19;5048116;28;20142;-64
2022/09/05 07:16:16;;;;;;;5.38;2.78;;;;;;;26.89;60.45;100503.16;5049083;28;20085;-64
2022/09/05 07:19:03;;;;;;;7.13;3.80;;;;;;;27.48;56.71;100509.41;5048696;28;20071;-64
2022/09/05 07:21:40;;;;;;;9.82;3.75;;;;;;;27.88;55.17;100506.44;5010587;28;20119;-64
2022/09/05 07:24:13;;;;;;;6.97;3.15;;;;;;;28.05;54.75;100512.06;5048646;28;20071;-64
2022/09/05 07:26:43;;;;;;;8.55;3.35;;;;;;;28.35;53.47;100509.03;5048597;28;20044;-64
2022/09/05 07:29:14;;;;;;;7.47;2.70;;;;;;;28.60;52.30;100512.97;5048419;28;20400;-64
2022/09/05 07:31:39;;;;;;;4.65;2.70;;;;;;;28.50;51.88;100512.16;5049055;28;20102;-64
2022/09/05 07:34:12;;;;;;;5.35;2.40;;;;;;;28.53;52.13;100519.25;5048663;28;20547;-64
2022/09/05 07:36:44;;;;;;;4.35;2.35;;;;;;;28.70;51.18;100522.00;5048403;28;20036;-64
2022/09/05 07:39:13;;;;;;;4.13;2.22;;;;;;;28.76;51.00;100520.53;5048345;28;20039;-64
2022/09/05 07:41:49;;;;;;;4.25;2.50;;;;;;;28.67;50.73;100518.72;5053193;28;20391;-64
2022/09/05 07:44:40;;;;;;;3.70;2.00;;;;;;;28.76;52.14;100518.69;5064051;28;20020;-64
2022/09/05 07:47:13;;;;;;;5.10;2.28;;;;;;;28.77;52.17;100519.53;5021674;28;20048;-64
2022/09/05 07:49:41;;;;;;;3.80;2.10;;;;;;;28.85;50.49;100523.22;5044355;28;20523;-64
2022/09/05 07:52:12;;;;;;;4.93;2.28;;;;;;;28.82;49.81;100517.19;5052293;28;20033;-64
2022/09/05 07:54:43;;;;;;;4.97;2.20;;;;;;;28.92;49.02;100517.97;5031009;28;20790;-65
2022/09/05 07:57:11;;;;;;;4.28;2.30;;;;;;;29.04;50.25;100514.88;5049654;28;20075;-65
2022/09/05 07:59:39;;;;;;;7.80;2.38;;;;;;;28.88;49.80;100516.59;5043437;28;20025;-64
2022/09/05 08:02:09;;;;;;;7.03;3.55;;;;;;;28.84;49.65;100509.69;5050428;28;20400;-65
2022/09/05 08:04:38;;;;;;;4.88;2.65;;;;;;;29.17;49.37;100520.88;5049013;28;20033;-65
2022/09/05 08:07:11;;;;;;;7.35;2.83;;;;;;;29.33;48.24;100517.41;5050074;28;20024;-64
2022/09/05 08:09:44;;;;;;;7.22;2.28;;;;;;;29.57;48.81;100514.91;5045718;28;20091;-64
2022/09/05 08:12:16;;;;;;;4.05;2.45;;;;;;;29.73;48.09;100522.41;5038690;28;20516;-64
2022/09/05 08:14:53;;;;;;;12.23;2.33;;;;;;;29.91;48.14;100532.34;5042553;28;20108;-64
2022/09/05 08:17:23;;;;;;;3.97;2.10;;;;;;;29.73;48.95;100531.53;5050601;28;20051;-64
2022/09/05 08:20:30;;;;;;;3.40;2.30;;;;;;;29.81;47.55;100530.72;5049863;28;20529;-64
2022/09/05 08:23:06;;;;;;;3.90;2.35;;;;;;;30.02;46.45;100523.84;5015812;28;20087;-64
2022/09/05 08:25:37;;;;;;;7.93;2.30;;;;;;;30.20;46.76;100524.63;5049055;28;20079;-64
2022/09/05 08:28:09;;;;;;;4.80;2.33;;;;;;;30.50;45.69;100521.41;5048146;28;20091;-64
2022/09/05 08:30:42;;;;;;;5.27;2.13;;;;;;;30.71;45.41;100535.56;5048903;28;20045;-64
2022/09/05 08:33:18;;;;;;;4.72;2.45;;;;;;;30.84;44.92;100538.72;5049069;28;20041;-64
2022/09/05 08:35:51;;;;;;;3.67;2.30;;;;;;;30.51;44.60;100534.09;5049318;28;20036;-64
2022/09/05 08:38:18;;;;;;;6.32;2.30;;;;;;;30.66;44.74;100543.44;5049308;28;20388;-64
2022/09/05 08:41:09;;;;;;;5.95;2.22;;;;;;;30.68;46.02;100543.25;5034000;28;20029;-64
2022/09/05 08:43:51;;;;;;;3.80;2.38;;;;;;;31.16;45.22;100534.34;5051272;28;20087;-65
2022/09/05 08:46:28;;;;;;;3.60;2.03;;;;;;;31.23;44.65;100532.66;5052107;28;20025;-64
2022/09/05 08:48:59;;;;;;;4.18;2.05;;;;;;;31.27;45.44;100542.28;5051601;28;20043;-65
2022/09/05 08:51:43;;;;;;;4.25;2.00;;;;;;;31.21;43.30;100537.44;5050864;28;20048;-64
2022/09/05 08:54:21;;;;;;;3.20;2.10;;;;;;;31.27;43.44;100542.28;5050552;28;20029;-64
2022/09/05 08:56:46;;;;;;;3.58;2.15;;;;;;;31.48;43.29;100535.31;5050299;28;20028;-64
2022/09/05 08:59:30;;;;;;;6.75;3.20;;;;;;;31.63;43.04;100528.06;5051111;28;20035;-64
2022/09/05 09:02:04;;;;;;;3.35;2.08;;;;;;;31.90;42.39;100530.50;5050989;28;20033;-64
2022/09/05 09:04:49;;;;;;;4.43;1.85;;;;;;;31.81;43.53;100530.66;5053420;28;20100;-64
2022/09/05 09:07:23;;;;;;;2.90;1.73;;;;;;;32.02;43.72;100529.13;5049772;28;20033;-64
2022/09/05 09:09:59;;;;;;;3.17;1.70;;;;;;;32.37;41.83;100527.84;5051521;28;20037;-65
2022/09/05 09:12:53;;;;;;;3.85;2.10;;;;;;;32.80;40.69;100524.56;5030624;28;20408;-65
2022/09/05 09:15:28;;;;;;;4.75;2.22;;;;;;;32.65;40.81;100518.13;5029594;28;20108;-65
2022/09/05 09:17:54;;;;;;;4.38;1.90;;;;;;;32.99;40.25;100510.38;5029407;28;20033;-65
2022/09/05 09:20:35;;;;;;;3.60;1.50;;;;;;;32.95;39.48;100497.97;5029394;28;20116;-66
2022/09/05 09:23:51;;;;;;;2.58;1.70;;;;;;;33.01;40.65;100505.56;5029463;28;20104;-66
2022/09/05 09:26:22;;;;;;;4.00;2.17;;;;;;;33.01;40.73;100511.06;5004314;28;20119;-66
2022/09/05 09:28:51;;;;;;;3.08;1.70;;;;;;;33.45;40.37;100496.63;5050634;28;20546;-65
2022/09/05 09:31:25;;;;;;;3.33;1.90;;;;;;;33.25;39.93;100488.81;5051562;28;20052;-66
2022/09/05 09:34:10;;;;;;;3.47;1.60;;;;;;;33.60;39.68;100484.59;5051452;28;20032;-65
2022/09/05 09:36:54;;;;;;;3.30;1.95;;;;;;;33.77;39.35;100493.59;5049867;28;20025;-65
2022/09/05 09:39:57;;;;;;;3.47;1.80;;;;;;;33.64;38.81;100496.13;5030091;28;20079;-66
2022/09/05 09:42:44;;;;;;;7.97;2.37;;;;;;;33.65;39.50;100484.91;5032467;28;20075;-66
2022/09/05 09:45:31;;;;;;;2.92;1.83;;;;;;;33.56;38.82;100490.69;5030170;28;20025;-66
2022/09/05 09:48:08;;;;;;;4.80;2.00;;;;;;;33.84;38.16;100486.28;5043461;28;20028;-66
2022/09/05 09:50:42;;;;;;;3.85;1.98;;;;;;;34.25;38.71;100484.84;5050786;28;20029;-66
2022/09/05 09:53:13;;;;;;;2.85;1.70;;;;;;;34.81;38.87;100475.00;5050341;28;20028;-66
2022/09/05 09:56:24;;;;;;;4.22;2.00;;;;;;;35.02;37.10;100473.16;5049684;28;20037;-66
2022/09/05 09:59:01;;;;;;;2.95;1.45;;;;;;;35.15;36.50;100478.81;5030048;28;20044;-66
2022/09/05 10:01:50;;;;;;;2.78;1.33;;;;;;;35.04;37.04;100478.47;5030535;28;20064;-66
2022/09/05 10:04:41;;;;;;;3.38;1.67;;;;;;;34.62;37.47;100484.75;5030652;28;20013;-66
2022/09/05 10:07:09;;;;;;;3.60;1.88;;;;;;;34.90;36.53;100479.38;5030541;28;20100;-66
2022/09/05 10:09:53;;;;;;;4.50;1.80;;;;;;;35.16;36.20;100463.06;5030546;28;20031;-66
2022/09/05 10:12:52;;;;;;;2.30;1.27;;;;;;;35.54;36.41;100456.22;5030377;28;20124;-66
2022/09/05 10:15:21;;;;;;;5.70;1.70;;;;;;;35.75;35.75;100459.81;5029594;28;20079;-66
2022/09/05 10:18:11;;;;;;;2.35;1.48;;;;;;;35.85;35.46;100465.03;5029403;28;20029;-66
2022/09/05 10:20:55;;;;;;;2.70;1.73;;;;;;;35.19;34.59;100458.00;5029297;28;20434;-66
2022/09/05 10:23:26;;;;;;;4.88;1.70;;;;;;;34.61;37.10;100452.63;5029860;28;20130;-65
2022/09/05 10:26:30;;;;;;;2.63;1.63;;;;;;;34.97;36.61;100448.00;5029544;28;20025;-66
2022/09/05 10:29:07;;;;;;;2.20;1.40;;;;;;;35.61;36.69;100452.47;5030814;28;20025;-66
2022/09/05 10:31:55;;;;;;;2.78;1.40;;;;;;;35.75;35.69;100447.91;5050665;28;20578;-66
2022/09/05 10:34:24;;;;;;;3.70;1.77;;;;;;;35.61;36.22;100451.63;5050215;28;20135;-66
2022/09/05 10:36:53;;;;;;;2.92;1.45;;;;;;;35.38;36.90;100449.06;5048815;28;20033;-66
2022/09/05 10:39:28;;;;;;;2.88;1.40;;;;;;;35.83;34.95;100451.34;5049072;28;20108;-66
2022/09/05 10:42:00;;;;;;;3.00;1.58;;;;;;;36.22;35.86;100442.50;5049195;28;20032;-65
2022/09/05 10:44:45;;;;;;;2.78;1.42;;;;;;;36.19;35.54;100444.81;5049159;28;20067;-66
2022/09/05 10:47:34;;;;;;;5.47;3.30;;;;;;;36.45;35.02;100450.53;5049725;28;20029;-66
2022/09/05 10:50:11;;;;;;;4.50;1.30;;;;;;;36.47;34.84;100442.88;5050614;28;20024;-66
2022/09/05 10:53:01;;;;;;;3.45;1.83;;;;;;;36.27;36.11;100431.66;5050481;28;20036;-65
2022/09/05 10:55:53;;;;;;;3.42;1.73;;;;;;;36.30;36.03;100435.91;5049781;28;20047;-65
2022/09/05 10:58:42;;;;;;;7.13;1.80;;;;;;;35.93;37.82;100419.72;5050500;28;20021;-66
2022/09/05 11:01:24;;;;;;;4.05;1.48;;;;;;;36.20;35.64;100421.56;5048615;28;20028;-65
2022/09/05 11:03:57;;;;;;;3.55;1.70;;;;;;;36.42;36.18;100414.91;5047205;28;20017;-66
2022/09/05 11:06:54;;;;;;;5.82;1.73;;;;;;;36.01;36.12;100422.34;5046942;28;20050;-66
2022/09/05 11:10:18;;;;;;;5.70;1.90;;;;;;;35.87;37.05;100413.06;5041963;28;20440;-66
2022/09/05 11:13:02;;;;;;;4.80;1.65;;;;;;;35.88;36.62;100408.41;4985528;28;20121;-66
2022/09/05 11:15:50;;;;;;;4.75;1.45;;;;;;;36.04;35.39;100408.06;4986313;28;20113;-66
2022/09/05 11:18:32;;;;;;;3.45;1.48;;;;;;;36.14;35.88;100414.09;5033858;28;20091;-66
2022/09/05 11:21:17;;;;;;;3.00;1.65;;;;;;;36.06;36.81;100397.66;5050124;28;20044;-66
2022/09/05 11:23:53;;;;;;;3.00;1.30;;;;;;;36.37;35.27;100404.44;5048550;28;20096;-66
2022/09/05 11:26:21;;;;;;;3.30;1.70;;;;;;;36.00;34.14;100398.47;5048708;28;20113;-66
2022/09/05 11:28:54;;;;;;;5.15;1.95;;;;;;;35.92;35.34;100396.69;5047480;28;20122;-66
2022/09/05 11:31:24;;;;;;;2.75;1.40;;;;;;;36.42;33.82;100387.19;5028523;28;20045;-66
2022/09/05 11:34:31;;;;;;;2.88;1.48;;;;;;;36.55;34.51;100388.09;5030703;28;20099;-67
2022/09/05 11:37:01;;;;;;;2.95;1.52;;;;;;;36.76;34.18;100385.16;5031356;28;20522;-66
2022/09/05 11:39:35;;;;;;;2.63;1.20;;;;;;;36.95;33.32;100387.16;5048571;28;20029;-66
2022/09/05 11:42:28;;;;;;;3.50;1.45;;;;;;;37.08;33.68;100377.16;5052710;28;20028;-66
2022/09/05 11:44:53;;;;;;;;;;;;;;;36.91;34.73;100373.94;5054291;28;20051;-66
2022/09/05 11:47:37;;;;;;;1.80;1.30;;;;;;;36.81;33.66;100373.47;5051075;28;19955;-66
2022/09/05 11:50:40;;;;;;;5.57;1.30;;;;;;;36.37;32.89;100370.31;5051401;28;20762;-66
2022/09/05 11:53:30;;;;;;;3.20;1.30;;;;;;;36.77;32.72;100364.69;5052946;28;20021;-66
2022/09/05 11:56:14;;;;;;;4.28;1.50;;;;;;;37.24;32.66;100358.19;5053435;28;20263;-66
2022/09/05 11:59:07;;;;;;;3.13;1.10;;;;;;;36.83;32.22;100351.94;5053891;28;20025;-66
2022/09/05 12:02:09;;;;;;;2.30;1.30;;;;;;;37.39;33.27;100352.41;5033274;28;20030;-66
2022/09/05 12:08:06;;;;;;;2.65;1.40;;;;;;;37.41;33.36;100342.84;5033555;28;20071;-65
2022/09/05 12:10:45;;;;;;;3.80;1.20;;;;;;;37.92;31.99;100340.19;5033443;28;20029;-66
2022/09/05 12:13:30;;;;;;;3.10;1.48;;;;;;;38.01;31.27;100330.53;5033257;28;20109;-66
2022/09/05 12:15:58;;;;;;;2.58;1.25;;;;;;;37.47;30.48;100324.44;5032251;28;20558;-66
2022/09/05 12:18:33;;;;;;;5.78;1.30;;;;;;;37.41;31.50;100328.94;5031708;28;20025;-66
2022/09/05 12:21:32;;;;;;;3.50;1.63;;;;;;;37.59;32.48;100322.72;5031308;28;20033;-66
2022/09/05 12:24:25;;;;;;;3.25;1.20;;;;;;;38.07;30.99;100330.50;5031884;28;20026;-66
2022/09/05 12:27:07;;;;;;;3.30;1.30;;;;;;;37.57;31.24;100324.84;5031635;28;20025;-65
2022/09/05 12:29:39;;;;;;;2.72;1.10;;;;;;;37.18;30.94;100333.19;5037072;28;20064;-66
2022/09/05 12:32:25;;;;;;;3.70;1.40;;;;;;;37.45;31.77;100310.78;5052521;28;20393;-66